sensor_id;sensor_type;location;lat;lon;timestamp;P1;durP1;ratioP1;P2;durP2;ratioP2
45236;SDS011;30973;51.442;3.580;2023-12-07T00:01:33;12.35;;;8.43;;
45236;SDS011;30973;51.442;3.580;2023-12-07T00:04:01;12.10;;;7.70;;
45236;SDS011;30973;51.442;3.580;2023-12-07T00:06:29;9.70;;;6.75;;
45236;SDS011;30973;51.442;3.580;2023-12-07T00:08:56;24.40;;;9.90;;
45236;SDS011;30973;51.442;3.580;2023-12-07T00:11:24;10.82;;;7.45;;
45236;SDS011;30973;51.442;3.580;2023-12-07T00:13:52;10.60;;;7.13;;
45236;SDS011;30973;51.442;3.580;2023-12-07T00:16:19;15.23;;;8.63;;
45236;SDS011;30973;51.442;3.580;2023-12-07T00:18:47;11.88;;;7.45;;
45236;SDS011;30973;51.442;3.580;2023-12-07T00:21:14;12.70;;;7.65;;
45236;SDS011;30973;51.442;3.580;2023-12-07T00:23:42;12.70;;;8.20;;
45236;SDS011;30973;51.442;3.580;2023-12-07T00:26:09;13.63;;;8.38;;
45236;SDS011;30973;51.442;3.580;2023-12-07T00:28:37;15.07;;;8.75;;
45236;SDS011;30973;51.442;3.580;2023-12-07T00:31:04;12.65;;;9.43;;
45236;SDS011;30973;51.442;3.580;2023-12-07T00:33:32;13.35;;;8.73;;
45236;SDS011;30973;51.442;3.580;2023-12-07T00:36:00;14.35;;;8.93;;
45236;SDS011;30973;51.442;3.580;2023-12-07T00:38:27;16.45;;;9.27;;
45236;SDS011;30973;51.442;3.580;2023-12-07T00:40:54;14.40;;;9.18;;
45236;SDS011;30973;51.442;3.580;2023-12-07T00:43:22;14.60;;;8.80;;
45236;SDS011;30973;51.442;3.580;2023-12-07T00:45:50;14.32;;;9.30;;
45236;SDS011;30973;51.442;3.580;2023-12-07T00:48:17;17.40;;;9.93;;
45236;SDS011;30973;51.442;3.580;2023-12-07T00:50:45;12.52;;;9.57;;
45236;SDS011;30973;51.442;3.580;2023-12-07T00:53:13;15.20;;;11.65;;
45236;SDS011;30973;51.442;3.580;2023-12-07T00:55:41;15.50;;;10.48;;
45236;SDS011;30973;51.442;3.580;2023-12-07T00:58:09;13.48;;;9.18;;
45236;SDS011;30973;51.442;3.580;2023-12-07T01:00:36;14.35;;;10.50;;
45236;SDS011;30973;51.442;3.580;2023-12-07T01:03:03;17.77;;;10.38;;
45236;SDS011;30973;51.442;3.580;2023-12-07T01:05:32;13.20;;;9.27;;
45236;SDS011;30973;51.442;3.580;2023-12-07T01:08:00;14.80;;;9.48;;
45236;SDS011;30973;51.442;3.580;2023-12-07T01:10:28;17.15;;;9.80;;
45236;SDS011;30973;51.442;3.580;2023-12-07T01:12:55;14.50;;;9.40;;
45236;SDS011;30973;51.442;3.580;2023-12-07T01:15:23;19.33;;;8.80;;
45236;SDS011;30973;51.442;3.580;2023-12-07T01:17:51;24.20;;;8.50;;
45236;SDS011;30973;51.442;3.580;2023-12-07T01:20:20;24.58;;;9.93;;
45236;SDS011;30973;51.442;3.580;2023-12-07T01:22:47;27.02;;;8.88;;
45236;SDS011;30973;51.442;3.580;2023-12-07T01:25:15;22.13;;;8.23;;
45236;SDS011;30973;51.442;3.580;2023-12-07T01:27:49;12.32;;;6.97;;
45236;SDS011;30973;51.442;3.580;2023-12-07T01:30:16;15.10;;;7.00;;
45236;SDS011;30973;51.442;3.580;2023-12-07T01:32:44;13.52;;;6.60;;
45236;SDS011;30973;51.442;3.580;2023-12-07T01:35:11;21.65;;;8.27;;
45236;SDS011;30973;51.442;3.580;2023-12-07T01:37:39;22.48;;;7.60;;
45236;SDS011;30973;51.442;3.580;2023-12-07T01:40:06;17.98;;;7.25;;
45236;SDS011;30973;51.442;3.580;2023-12-07T01:42:37;15.57;;;7.90;;
45236;SDS011;30973;51.442;3.580;2023-12-07T01:45:05;29.83;;;8.73;;
45236;SDS011;30973;51.442;3.580;2023-12-07T01:47:33;27.67;;;7.30;;
45236;SDS011;30973;51.442;3.580;2023-12-07T01:50:02;27.98;;;8.10;;
45236;SDS011;30973;51.442;3.580;2023-12-07T01:52:33;20.63;;;7.97;;
45236;SDS011;30973;51.442;3.580;2023-12-07T01:55:03;51.25;;;8.85;;
45236;SDS011;30973;51.442;3.580;2023-12-07T01:57:30;20.90;;;6.47;;
45236;SDS011;30973;51.442;3.580;2023-12-07T02:00:00;26.15;;;7.75;;
45236;SDS011;30973;51.442;3.580;2023-12-07T02:02:30;26.98;;;7.07;;
45236;SDS011;30973;51.442;3.580;2023-12-07T02:04:59;34.78;;;8.85;;
45236;SDS011;30973;51.442;3.580;2023-12-07T02:07:27;28.17;;;9.57;;
45236;SDS011;30973;51.442;3.580;2023-12-07T02:09:55;28.20;;;8.50;;
45236;SDS011;30973;51.442;3.580;2023-12-07T02:12:22;12.95;;;6.88;;
45236;SDS011;30973;51.442;3.580;2023-12-07T02:14:51;19.77;;;7.43;;
45236;SDS011;30973;51.442;3.580;2023-12-07T02:19:59;21.52;;;7.95;;
45236;SDS011;30973;51.442;3.580;2023-12-07T02:23:04;13.13;;;6.70;;
45236;SDS011;30973;51.442;3.580;2023-12-07T02:25:26;34.63;;;8.68;;
45236;SDS011;30973;51.442;3.580;2023-12-07T02:27:56;31.88;;;7.63;;
45236;SDS011;30973;51.442;3.580;2023-12-07T02:30:23;32.63;;;7.38;;
45236;SDS011;30973;51.442;3.580;2023-12-07T02:32:51;46.88;;;9.00;;
45236;SDS011;30973;51.442;3.580;2023-12-07T02:35:19;43.28;;;8.48;;
45236;SDS011;30973;51.442;3.580;2023-12-07T02:37:49;25.58;;;8.10;;
45236;SDS011;30973;51.442;3.580;2023-12-07T02:40:18;26.65;;;7.80;;
45236;SDS011;30973;51.442;3.580;2023-12-07T02:42:46;25.02;;;7.78;;
45236;SDS011;30973;51.442;3.580;2023-12-07T02:45:15;31.50;;;7.38;;
45236;SDS011;30973;51.442;3.580;2023-12-07T02:47:45;22.00;;;7.70;;
45236;SDS011;30973;51.442;3.580;2023-12-07T02:50:13;53.72;;;9.90;;
45236;SDS011;30973;51.442;3.580;2023-12-07T02:52:41;38.17;;;8.05;;
45236;SDS011;30973;51.442;3.580;2023-12-07T02:55:09;40.67;;;8.02;;
45236;SDS011;30973;51.442;3.580;2023-12-07T02:57:36;27.52;;;8.02;;
45236;SDS011;30973;51.442;3.580;2023-12-07T03:00:05;35.67;;;9.10;;
45236;SDS011;30973;51.442;3.580;2023-12-07T03:02:34;30.88;;;8.60;;
45236;SDS011;30973;51.442;3.580;2023-12-07T03:05:02;35.05;;;8.57;;
45236;SDS011;30973;51.442;3.580;2023-12-07T03:07:30;66.88;;;10.68;;
45236;SDS011;30973;51.442;3.580;2023-12-07T03:09:57;36.90;;;9.30;;
45236;SDS011;30973;51.442;3.580;2023-12-07T03:12:25;34.13;;;9.00;;
45236;SDS011;30973;51.442;3.580;2023-12-07T03:14:52;47.33;;;10.43;;
45236;SDS011;30973;51.442;3.580;2023-12-07T03:17:20;43.22;;;9.70;;
45236;SDS011;30973;51.442;3.580;2023-12-07T03:19:47;28.52;;;9.50;;
45236;SDS011;30973;51.442;3.580;2023-12-07T03:22:15;58.45;;;10.73;;
45236;SDS011;30973;51.442;3.580;2023-12-07T03:24:46;47.97;;;10.15;;
45236;SDS011;30973;51.442;3.580;2023-12-07T03:27:14;76.70;;;12.23;;
45236;SDS011;30973;51.442;3.580;2023-12-07T03:29:42;91.15;;;12.55;;
45236;SDS011;30973;51.442;3.580;2023-12-07T03:32:09;56.35;;;10.77;;
45236;SDS011;30973;51.442;3.580;2023-12-07T03:34:37;44.70;;;9.45;;
45236;SDS011;30973;51.442;3.580;2023-12-07T03:37:04;48.72;;;10.40;;
45236;SDS011;30973;51.442;3.580;2023-12-07T03:39:32;41.30;;;10.68;;
45236;SDS011;30973;51.442;3.580;2023-12-07T03:42:00;38.83;;;11.13;;
45236;SDS011;30973;51.442;3.580;2023-12-07T03:44:27;46.58;;;10.70;;
45236;SDS011;30973;51.442;3.580;2023-12-07T03:46:54;57.17;;;10.48;;
45236;SDS011;30973;51.442;3.580;2023-12-07T03:49:22;49.63;;;10.13;;
45236;SDS011;30973;51.442;3.580;2023-12-07T03:51:50;74.05;;;10.82;;
45236;SDS011;30973;51.442;3.580;2023-12-07T03:54:18;49.50;;;10.23;;
45236;SDS011;30973;51.442;3.580;2023-12-07T03:56:46;53.90;;;9.65;;
45236;SDS011;30973;51.442;3.580;2023-12-07T03:59:14;35.75;;;9.38;;
45236;SDS011;30973;51.442;3.580;2023-12-07T04:01:42;99.88;;;13.52;;
45236;SDS011;30973;51.442;3.580;2023-12-07T04:04:09;66.45;;;10.52;;
45236;SDS011;30973;51.442;3.580;2023-12-07T04:06:37;39.33;;;9.15;;
45236;SDS011;30973;51.442;3.580;2023-12-07T04:09:05;53.25;;;10.48;;
45236;SDS011;30973;51.442;3.580;2023-12-07T04:11:32;39.15;;;10.25;;
45236;SDS011;30973;51.442;3.580;2023-12-07T04:14:00;57.70;;;9.77;;
45236;SDS011;30973;51.442;3.580;2023-12-07T04:16:27;74.88;;;11.95;;
45236;SDS011;30973;51.442;3.580;2023-12-07T04:18:55;78.85;;;12.43;;
45236;SDS011;30973;51.442;3.580;2023-12-07T04:21:22;99.65;;;13.05;;
45236;SDS011;30973;51.442;3.580;2023-12-07T04:23:49;55.10;;;12.63;;
45236;SDS011;30973;51.442;3.580;2023-12-07T04:26:17;77.82;;;13.88;;
45236;SDS011;30973;51.442;3.580;2023-12-07T04:28:45;115.65;;;16.13;;
45236;SDS011;30973;51.442;3.580;2023-12-07T04:31:12;83.28;;;14.57;;
45236;SDS011;30973;51.442;3.580;2023-12-07T04:33:40;78.80;;;13.25;;
45236;SDS011;30973;51.442;3.580;2023-12-07T04:36:08;58.92;;;12.93;;
45236;SDS011;30973;51.442;3.580;2023-12-07T04:38:35;102.50;;;15.23;;
45236;SDS011;30973;51.442;3.580;2023-12-07T04:41:03;97.30;;;16.08;;
45236;SDS011;30973;51.442;3.580;2023-12-07T04:43:30;82.68;;;15.85;;
45236;SDS011;30973;51.442;3.580;2023-12-07T04:45:58;90.97;;;15.70;;
45236;SDS011;30973;51.442;3.580;2023-12-07T04:48:26;158.63;;;21.80;;
45236;SDS011;30973;51.442;3.580;2023-12-07T04:50:53;72.88;;;15.90;;
45236;SDS011;30973;51.442;3.580;2023-12-07T04:53:21;92.55;;;17.35;;
45236;SDS011;30973;51.442;3.580;2023-12-07T04:55:48;73.60;;;19.05;;
45236;SDS011;30973;51.442;3.580;2023-12-07T04:58:16;65.20;;;17.55;;
45236;SDS011;30973;51.442;3.580;2023-12-07T05:00:44;42.17;;;15.18;;
45236;SDS011;30973;51.442;3.580;2023-12-07T05:03:11;75.10;;;16.33;;
45236;SDS011;30973;51.442;3.580;2023-12-07T05:05:39;47.72;;;16.60;;
45236;SDS011;30973;51.442;3.580;2023-12-07T05:08:07;48.22;;;18.65;;
45236;SDS011;30973;51.442;3.580;2023-12-07T05:10:34;81.78;;;22.25;;
45236;SDS011;30973;51.442;3.580;2023-12-07T05:13:02;77.35;;;21.70;;
45236;SDS011;30973;51.442;3.580;2023-12-07T05:15:30;58.42;;;20.70;;
45236;SDS011;30973;51.442;3.580;2023-12-07T05:17:57;68.00;;;22.23;;
45236;SDS011;30973;51.442;3.580;2023-12-07T05:20:25;53.05;;;20.75;;
45236;SDS011;30973;51.442;3.580;2023-12-07T05:22:54;55.83;;;20.92;;
45236;SDS011;30973;51.442;3.580;2023-12-07T05:25:22;55.25;;;21.85;;
45236;SDS011;30973;51.442;3.580;2023-12-07T05:27:49;67.18;;;21.00;;
45236;SDS011;30973;51.442;3.580;2023-12-07T05:30:17;51.90;;;22.48;;
45236;SDS011;30973;51.442;3.580;2023-12-07T05:32:44;45.88;;;23.23;;
45236;SDS011;30973;51.442;3.580;2023-12-07T05:35:12;51.80;;;24.08;;
45236;SDS011;30973;51.442;3.580;2023-12-07T05:37:39;54.13;;;24.10;;
45236;SDS011;30973;51.442;3.580;2023-12-07T05:40:07;65.68;;;24.00;;
45236;SDS011;30973;51.442;3.580;2023-12-07T05:42:35;44.30;;;21.35;;
45236;SDS011;30973;51.442;3.580;2023-12-07T05:45:03;56.70;;;24.30;;
45236;SDS011;30973;51.442;3.580;2023-12-07T05:47:33;52.67;;;24.17;;
45236;SDS011;30973;51.442;3.580;2023-12-07T05:50:00;52.90;;;24.15;;
45236;SDS011;30973;51.442;3.580;2023-12-07T05:52:29;53.35;;;25.33;;
45236;SDS011;30973;51.442;3.580;2023-12-07T05:54:57;47.00;;;23.50;;
45236;SDS011;30973;51.442;3.580;2023-12-07T05:57:24;48.85;;;24.55;;
45236;SDS011;30973;51.442;3.580;2023-12-07T05:59:54;52.97;;;25.65;;
45236;SDS011;30973;51.442;3.580;2023-12-07T06:02:22;52.10;;;23.50;;
45236;SDS011;30973;51.442;3.580;2023-12-07T06:04:50;50.50;;;25.10;;
45236;SDS011;30973;51.442;3.580;2023-12-07T06:07:18;42.40;;;21.98;;
45236;SDS011;30973;51.442;3.580;2023-12-07T06:09:45;46.22;;;23.85;;
45236;SDS011;30973;51.442;3.580;2023-12-07T06:12:13;50.17;;;23.33;;
45236;SDS011;30973;51.442;3.580;2023-12-07T06:14:40;44.25;;;21.42;;
45236;SDS011;30973;51.442;3.580;2023-12-07T06:17:08;50.92;;;23.30;;
45236;SDS011;30973;51.442;3.580;2023-12-07T06:19:36;46.78;;;23.88;;
45236;SDS011;30973;51.442;3.580;2023-12-07T06:22:03;49.30;;;24.25;;
45236;SDS011;30973;51.442;3.580;2023-12-07T06:24:32;49.08;;;25.42;;
45236;SDS011;30973;51.442;3.580;2023-12-07T06:26:59;51.72;;;22.40;;
45236;SDS011;30973;51.442;3.580;2023-12-07T06:29:28;51.25;;;23.30;;
45236;SDS011;30973;51.442;3.580;2023-12-07T06:31:56;50.55;;;23.42;;
45236;SDS011;30973;51.442;3.580;2023-12-07T06:34:23;42.53;;;23.25;;
45236;SDS011;30973;51.442;3.580;2023-12-07T06:36:51;41.00;;;23.00;;
45236;SDS011;30973;51.442;3.580;2023-12-07T06:39:19;44.33;;;22.20;;
45236;SDS011;30973;51.442;3.580;2023-12-07T06:41:46;43.10;;;21.42;;
45236;SDS011;30973;51.442;3.580;2023-12-07T06:44:13;40.28;;;20.52;;
45236;SDS011;30973;51.442;3.580;2023-12-07T06:46:41;35.00;;;20.15;;
45236;SDS011;30973;51.442;3.580;2023-12-07T06:49:08;36.45;;;20.55;;
45236;SDS011;30973;51.442;3.580;2023-12-07T06:51:39;35.63;;;19.35;;
45236;SDS011;30973;51.442;3.580;2023-12-07T06:54:07;34.60;;;19.27;;
45236;SDS011;30973;51.442;3.580;2023-12-07T06:56:34;30.13;;;18.38;;
45236;SDS011;30973;51.442;3.580;2023-12-07T06:59:02;27.95;;;17.75;;
45236;SDS011;30973;51.442;3.580;2023-12-07T07:01:30;28.45;;;16.92;;
45236;SDS011;30973;51.442;3.580;2023-12-07T07:04:00;29.63;;;14.98;;
45236;SDS011;30973;51.442;3.580;2023-12-07T07:06:27;25.58;;;14.70;;
45236;SDS011;30973;51.442;3.580;2023-12-07T07:08:55;24.45;;;15.25;;
45236;SDS011;30973;51.442;3.580;2023-12-07T07:11:25;25.50;;;14.55;;
45236;SDS011;30973;51.442;3.580;2023-12-07T07:13:55;26.40;;;14.20;;
45236;SDS011;30973;51.442;3.580;2023-12-07T07:16:23;22.88;;;15.25;;
45236;SDS011;30973;51.442;3.580;2023-12-07T07:18:50;21.98;;;14.35;;
45236;SDS011;30973;51.442;3.580;2023-12-07T07:21:18;27.80;;;15.20;;
45236;SDS011;30973;51.442;3.580;2023-12-07T07:23:48;29.73;;;15.93;;
45236;SDS011;30973;51.442;3.580;2023-12-07T07:26:17;23.75;;;13.90;;
45236;SDS011;30973;51.442;3.580;2023-12-07T07:28:46;21.23;;;13.15;;
45236;SDS011;30973;51.442;3.580;2023-12-07T07:31:15;21.02;;;13.88;;
45236;SDS011;30973;51.442;3.580;2023-12-07T07:33:42;21.75;;;13.38;;
45236;SDS011;30973;51.442;3.580;2023-12-07T07:36:10;20.85;;;14.10;;
45236;SDS011;30973;51.442;3.580;2023-12-07T07:38:38;21.88;;;11.90;;
45236;SDS011;30973;51.442;3.580;2023-12-07T07:41:05;19.98;;;12.25;;
45236;SDS011;30973;51.442;3.580;2023-12-07T07:43:33;17.50;;;10.98;;
45236;SDS011;30973;51.442;3.580;2023-12-07T07:46:01;21.70;;;12.45;;
45236;SDS011;30973;51.442;3.580;2023-12-07T07:48:28;19.10;;;11.32;;
45236;SDS011;30973;51.442;3.580;2023-12-07T07:50:59;22.33;;;13.02;;
45236;SDS011;30973;51.442;3.580;2023-12-07T07:53:26;19.75;;;11.50;;
45236;SDS011;30973;51.442;3.580;2023-12-07T07:55:54;21.58;;;12.07;;
45236;SDS011;30973;51.442;3.580;2023-12-07T07:58:22;24.10;;;11.57;;
45236;SDS011;30973;51.442;3.580;2023-12-07T08:00:52;22.02;;;12.68;;
45236;SDS011;30973;51.442;3.580;2023-12-07T08:03:20;21.67;;;11.65;;
45236;SDS011;30973;51.442;3.580;2023-12-07T08:05:48;25.20;;;12.40;;
45236;SDS011;30973;51.442;3.580;2023-12-07T08:08:15;21.30;;;12.93;;
45236;SDS011;30973;51.442;3.580;2023-12-07T08:10:43;22.30;;;15.35;;
45236;SDS011;30973;51.442;3.580;2023-12-07T08:13:21;23.35;;;15.90;;
45236;SDS011;30973;51.442;3.580;2023-12-07T08:15:49;25.25;;;15.80;;
45236;SDS011;30973;51.442;3.580;2023-12-07T08:18:19;24.42;;;14.70;;
45236;SDS011;30973;51.442;3.580;2023-12-07T08:20:47;22.80;;;14.05;;
45236;SDS011;30973;51.442;3.580;2023-12-07T08:23:15;18.83;;;11.80;;
45236;SDS011;30973;51.442;3.580;2023-12-07T08:25:42;21.95;;;12.38;;
45236;SDS011;30973;51.442;3.580;2023-12-07T08:28:10;18.98;;;11.95;;
45236;SDS011;30973;51.442;3.580;2023-12-07T08:30:38;20.88;;;12.07;;
45236;SDS011;30973;51.442;3.580;2023-12-07T08:33:05;20.63;;;11.10;;
45236;SDS011;30973;51.442;3.580;2023-12-07T08:35:32;18.95;;;11.63;;
45236;SDS011;30973;51.442;3.580;2023-12-07T08:38:00;18.98;;;12.25;;
45236;SDS011;30973;51.442;3.580;2023-12-07T08:40:29;19.73;;;12.70;;
45236;SDS011;30973;51.442;3.580;2023-12-07T08:42:56;20.48;;;13.43;;
45236;SDS011;30973;51.442;3.580;2023-12-07T08:45:24;21.80;;;12.95;;
45236;SDS011;30973;51.442;3.580;2023-12-07T08:47:51;17.95;;;12.85;;
45236;SDS011;30973;51.442;3.580;2023-12-07T08:50:20;20.55;;;12.80;;
45236;SDS011;30973;51.442;3.580;2023-12-07T08:52:48;23.30;;;12.35;;
45236;SDS011;30973;51.442;3.580;2023-12-07T08:55:24;21.23;;;12.30;;
45236;SDS011;30973;51.442;3.580;2023-12-07T08:57:52;20.73;;;12.80;;
45236;SDS011;30973;51.442;3.580;2023-12-07T09:00:20;20.08;;;12.38;;
45236;SDS011;30973;51.442;3.580;2023-12-07T09:02:50;20.00;;;11.88;;
45236;SDS011;30973;51.442;3.580;2023-12-07T09:05:18;21.30;;;11.77;;
45236;SDS011;30973;51.442;3.580;2023-12-07T09:07:46;22.90;;;12.88;;
45236;SDS011;30973;51.442;3.580;2023-12-07T09:10:13;16.33;;;11.40;;
45236;SDS011;30973;51.442;3.580;2023-12-07T09:12:41;17.92;;;11.90;;
45236;SDS011;30973;51.442;3.580;2023-12-07T09:15:09;21.05;;;13.13;;
45236;SDS011;30973;51.442;3.580;2023-12-07T09:17:38;24.83;;;11.98;;
45236;SDS011;30973;51.442;3.580;2023-12-07T09:20:09;23.73;;;12.98;;
45236;SDS011;30973;51.442;3.580;2023-12-07T09:22:47;20.40;;;12.45;;
45236;SDS011;30973;51.442;3.580;2023-12-07T09:25:15;20.15;;;11.95;;
45236;SDS011;30973;51.442;3.580;2023-12-07T09:27:44;19.75;;;11.40;;
45236;SDS011;30973;51.442;3.580;2023-12-07T09:30:11;21.15;;;12.48;;
45236;SDS011;30973;51.442;3.580;2023-12-07T09:32:40;22.83;;;12.15;;
45236;SDS011;30973;51.442;3.580;2023-12-07T09:35:11;18.83;;;11.50;;
45236;SDS011;30973;51.442;3.580;2023-12-07T09:37:47;20.00;;;11.38;;
45236;SDS011;30973;51.442;3.580;2023-12-07T09:40:16;18.45;;;10.95;;
45236;SDS011;30973;51.442;3.580;2023-12-07T09:42:44;17.50;;;11.60;;
45236;SDS011;30973;51.442;3.580;2023-12-07T09:45:12;17.30;;;10.20;;
45236;SDS011;30973;51.442;3.580;2023-12-07T09:50:18;17.42;;;10.45;;
45236;SDS011;30973;51.442;3.580;2023-12-07T09:52:50;18.45;;;10.60;;
45236;SDS011;30973;51.442;3.580;2023-12-07T09:55:33;16.08;;;11.68;;
45236;SDS011;30973;51.442;3.580;2023-12-07T09:58:03;16.83;;;10.63;;
45236;SDS011;30973;51.442;3.580;2023-12-07T10:00:32;19.13;;;10.60;;
45236;SDS011;30973;51.442;3.580;2023-12-07T10:03:00;15.77;;;10.07;;
45236;SDS011;30973;51.442;3.580;2023-12-07T10:05:28;18.52;;;10.88;;
45236;SDS011;30973;51.442;3.580;2023-12-07T10:07:56;16.85;;;10.15;;
45236;SDS011;30973;51.442;3.580;2023-12-07T10:10:23;14.77;;;9.60;;
45236;SDS011;30973;51.442;3.580;2023-12-07T10:12:56;17.75;;;10.57;;
45236;SDS011;30973;51.442;3.580;2023-12-07T10:15:26;17.25;;;10.13;;
45236;SDS011;30973;51.442;3.580;2023-12-07T10:17:58;16.25;;;11.13;;
45236;SDS011;30973;51.442;3.580;2023-12-07T10:20:27;14.30;;;10.45;;
45236;SDS011;30973;51.442;3.580;2023-12-07T10:25:30;15.50;;;10.00;;
45236;SDS011;30973;51.442;3.580;2023-12-07T10:27:58;17.92;;;11.13;;
45236;SDS011;30973;51.442;3.580;2023-12-07T10:30:27;17.00;;;9.73;;
45236;SDS011;30973;51.442;3.580;2023-12-07T10:32:55;16.73;;;10.35;;
45236;SDS011;30973;51.442;3.580;2023-12-07T10:35:23;14.15;;;8.55;;
45236;SDS011;30973;51.442;3.580;2023-12-07T10:37:51;15.15;;;9.77;;
45236;SDS011;30973;51.442;3.580;2023-12-07T10:40:19;14.50;;;10.20;;
45236;SDS011;30973;51.442;3.580;2023-12-07T10:42:49;16.52;;;10.50;;
45236;SDS011;30973;51.442;3.580;2023-12-07T10:45:19;13.93;;;9.48;;
45236;SDS011;30973;51.442;3.580;2023-12-07T10:47:48;17.25;;;10.40;;
45236;SDS011;30973;51.442;3.580;2023-12-07T10:50:16;13.95;;;8.88;;
45236;SDS011;30973;51.442;3.580;2023-12-07T10:52:51;14.63;;;9.57;;
45236;SDS011;30973;51.442;3.580;2023-12-07T10:55:22;15.45;;;10.27;;
45236;SDS011;30973;51.442;3.580;2023-12-07T10:57:52;13.98;;;9.13;;
45236;SDS011;30973;51.442;3.580;2023-12-07T11:00:21;15.27;;;9.27;;
45236;SDS011;30973;51.442;3.580;2023-12-07T11:03:18;14.30;;;8.73;;
45236;SDS011;30973;51.442;3.580;2023-12-07T11:05:48;16.45;;;9.30;;
45236;SDS011;30973;51.442;3.580;2023-12-07T11:08:19;14.07;;;10.13;;
45236;SDS011;30973;51.442;3.580;2023-12-07T11:13:29;12.65;;;8.27;;
45236;SDS011;30973;51.442;3.580;2023-12-07T11:15:58;14.35;;;9.02;;
45236;SDS011;30973;51.442;3.580;2023-12-07T11:18:26;18.00;;;9.75;;
45236;SDS011;30973;51.442;3.580;2023-12-07T11:20:57;17.70;;;9.48;;
45236;SDS011;30973;51.442;3.580;2023-12-07T11:23:28;14.10;;;8.65;;
45236;SDS011;30973;51.442;3.580;2023-12-07T11:25:59;11.63;;;7.60;;
45236;SDS011;30973;51.442;3.580;2023-12-07T11:28:38;13.55;;;9.48;;
45236;SDS011;30973;51.442;3.580;2023-12-07T11:31:07;18.23;;;8.95;;
45236;SDS011;30973;51.442;3.580;2023-12-07T11:33:38;16.45;;;8.82;;
45236;SDS011;30973;51.442;3.580;2023-12-07T11:36:09;16.60;;;8.90;;
45236;SDS011;30973;51.442;3.580;2023-12-07T11:38:37;12.30;;;8.35;;
45236;SDS011;30973;51.442;3.580;2023-12-07T11:41:05;11.98;;;8.23;;
45236;SDS011;30973;51.442;3.580;2023-12-07T11:46:02;18.17;;;9.00;;
45236;SDS011;30973;51.442;3.580;2023-12-07T11:48:29;14.15;;;8.68;;
45236;SDS011;30973;51.442;3.580;2023-12-07T11:51:01;12.98;;;8.80;;
45236;SDS011;30973;51.442;3.580;2023-12-07T11:53:29;14.88;;;7.80;;
45236;SDS011;30973;51.442;3.580;2023-12-07T11:56:09;13.00;;;8.18;;
45236;SDS011;30973;51.442;3.580;2023-12-07T11:58:39;15.00;;;8.73;;
45236;SDS011;30973;51.442;3.580;2023-12-07T12:01:07;16.30;;;9.43;;
45236;SDS011;30973;51.442;3.580;2023-12-07T12:03:37;10.90;;;8.10;;
45236;SDS011;30973;51.442;3.580;2023-12-07T12:06:05;16.20;;;8.30;;
45236;SDS011;30973;51.442;3.580;2023-12-07T12:08:34;14.43;;;8.05;;
45236;SDS011;30973;51.442;3.580;2023-12-07T12:11:02;10.52;;;7.82;;
45236;SDS011;30973;51.442;3.580;2023-12-07T12:13:30;13.75;;;8.20;;
45236;SDS011;30973;51.442;3.580;2023-12-07T12:15:58;11.70;;;8.13;;
45236;SDS011;30973;51.442;3.580;2023-12-07T12:18:30;10.65;;;7.18;;
45236;SDS011;30973;51.442;3.580;2023-12-07T12:20:59;15.52;;;8.40;;
45236;SDS011;30973;51.442;3.580;2023-12-07T12:23:27;14.68;;;8.63;;
45236;SDS011;30973;51.442;3.580;2023-12-07T12:25:55;15.32;;;8.73;;
45236;SDS011;30973;51.442;3.580;2023-12-07T12:28:26;13.10;;;7.68;;
45236;SDS011;30973;51.442;3.580;2023-12-07T12:30:54;11.70;;;8.02;;
45236;SDS011;30973;51.442;3.580;2023-12-07T12:33:22;18.38;;;8.73;;
45236;SDS011;30973;51.442;3.580;2023-12-07T12:36:02;12.27;;;7.80;;
45236;SDS011;30973;51.442;3.580;2023-12-07T12:38:31;12.77;;;7.78;;
45236;SDS011;30973;51.442;3.580;2023-12-07T12:41:08;9.90;;;7.13;;
45236;SDS011;30973;51.442;3.580;2023-12-07T12:43:36;12.45;;;7.63;;
45236;SDS011;30973;51.442;3.580;2023-12-07T12:46:03;9.63;;;6.93;;
45236;SDS011;30973;51.442;3.580;2023-12-07T12:48:32;9.52;;;7.60;;
45236;SDS011;30973;51.442;3.580;2023-12-07T12:51:34;12.00;;;7.53;;
45236;SDS011;30973;51.442;3.580;2023-12-07T12:53:56;8.75;;;6.57;;
45236;SDS011;30973;51.442;3.580;2023-12-07T12:56:25;10.13;;;6.40;;
45236;SDS011;30973;51.442;3.580;2023-12-07T12:58:54;10.55;;;6.65;;
45236;SDS011;30973;51.442;3.580;2023-12-07T13:01:31;13.30;;;7.50;;
45236;SDS011;30973;51.442;3.580;2023-12-07T13:04:00;9.93;;;6.70;;
45236;SDS011;30973;51.442;3.580;2023-12-07T13:06:27;11.88;;;6.80;;
45236;SDS011;30973;51.442;3.580;2023-12-07T13:08:55;10.98;;;6.85;;
45236;SDS011;30973;51.442;3.580;2023-12-07T13:11:24;13.70;;;7.18;;
45236;SDS011;30973;51.442;3.580;2023-12-07T13:13:52;10.90;;;6.50;;
45236;SDS011;30973;51.442;3.580;2023-12-07T13:16:19;11.23;;;6.60;;
45236;SDS011;30973;51.442;3.580;2023-12-07T13:18:47;11.82;;;6.43;;
45236;SDS011;30973;51.442;3.580;2023-12-07T13:21:15;11.38;;;7.10;;
45236;SDS011;30973;51.442;3.580;2023-12-07T13:23:43;11.98;;;5.95;;
45236;SDS011;30973;51.442;3.580;2023-12-07T13:26:13;9.43;;;6.13;;
45236;SDS011;30973;51.442;3.580;2023-12-07T13:28:40;9.25;;;6.18;;
45236;SDS011;30973;51.442;3.580;2023-12-07T13:31:09;10.93;;;5.55;;
45236;SDS011;30973;51.442;3.580;2023-12-07T13:33:37;8.30;;;5.70;;
45236;SDS011;30973;51.442;3.580;2023-12-07T13:36:18;12.00;;;5.82;;
45236;SDS011;30973;51.442;3.580;2023-12-07T13:38:47;9.93;;;5.63;;
45236;SDS011;30973;51.442;3.580;2023-12-07T13:41:14;11.43;;;6.60;;
45236;SDS011;30973;51.442;3.580;2023-12-07T13:43:43;7.45;;;5.22;;
45236;SDS011;30973;51.442;3.580;2023-12-07T13:46:10;7.65;;;5.03;;
45236;SDS011;30973;51.442;3.580;2023-12-07T13:48:39;8.63;;;5.63;;
45236;SDS011;30973;51.442;3.580;2023-12-07T13:51:10;7.05;;;4.93;;
45236;SDS011;30973;51.442;3.580;2023-12-07T13:53:37;9.55;;;5.20;;
45236;SDS011;30973;51.442;3.580;2023-12-07T13:56:05;9.18;;;5.40;;
45236;SDS011;30973;51.442;3.580;2023-12-07T13:58:34;8.82;;;5.10;;
45236;SDS011;30973;51.442;3.580;2023-12-07T14:01:02;9.82;;;4.68;;
45236;SDS011;30973;51.442;3.580;2023-12-07T14:03:29;7.78;;;4.43;;
45236;SDS011;30973;51.442;3.580;2023-12-07T14:05:59;9.18;;;5.18;;
45236;SDS011;30973;51.442;3.580;2023-12-07T14:08:30;8.43;;;5.35;;
45236;SDS011;30973;51.442;3.580;2023-12-07T14:10:58;7.47;;;4.30;;
45236;SDS011;30973;51.442;3.580;2023-12-07T14:13:25;7.40;;;4.75;;
45236;SDS011;30973;51.442;3.580;2023-12-07T14:15:53;8.07;;;4.80;;
45236;SDS011;30973;51.442;3.580;2023-12-07T14:18:32;9.82;;;4.25;;
45236;SDS011;30973;51.442;3.580;2023-12-07T14:20:59;8.43;;;4.75;;
45236;SDS011;30973;51.442;3.580;2023-12-07T14:23:44;9.43;;;4.75;;
45236;SDS011;30973;51.442;3.580;2023-12-07T14:26:21;10.93;;;4.53;;
45236;SDS011;30973;51.442;3.580;2023-12-07T14:28:48;7.43;;;4.57;;
45236;SDS011;30973;51.442;3.580;2023-12-07T14:31:16;8.88;;;5.25;;
45236;SDS011;30973;51.442;3.580;2023-12-07T14:33:44;9.52;;;5.80;;
45236;SDS011;30973;51.442;3.580;2023-12-07T14:36:13;9.20;;;5.25;;
45236;SDS011;30973;51.442;3.580;2023-12-07T14:38:40;9.77;;;6.40;;
45236;SDS011;30973;51.442;3.580;2023-12-07T14:41:09;14.50;;;6.03;;
45236;SDS011;30973;51.442;3.580;2023-12-07T14:43:38;10.60;;;6.20;;
45236;SDS011;30973;51.442;3.580;2023-12-07T14:46:06;10.02;;;6.57;;
45236;SDS011;30973;51.442;3.580;2023-12-07T14:48:33;10.65;;;5.65;;
45236;SDS011;30973;51.442;3.580;2023-12-07T14:51:01;10.27;;;6.47;;